Saida — UGTI — position and weather

sailwx.info

Track history (hours):
 
Tides and Currents Weather Stations Pressure Air Temp Water Temp Dewpoint Dewpoint Depression Visibility Wind Speed Wind Dir Waves Ship Positions

Saida

Last reported at 2017-Nov-10 15:23 UTC. Time now 2017-Nov-18 06:37 UTC.
Position N 69°03' E 033°04'.

Length 57 m; draft 5.9 m.

Type: Fishing. MMSI: 273521100.

Date/timePositionNaut miles runAvg speedWind from/ knotsBaromVisibWave heightAir tempDewpointWater temp
2017-Nov-10 15:23N 69°03' E 033°04'2 6.4
2017-Nov-10 15:00N 69°01' E 033°03'3 5.1
2017-Nov-10 14:30N 68°58' E 033°02'1 1.4
2017-Nov-10 14:00N 68°58' E 033°01'0 0.0
2017-Nov-10 13:30N 68°58' E 033°01'0 0.0
2017-Nov-10 13:00N 68°58' E 033°01'0 0.0
2017-Nov-10 12:29N 68°58' E 033°01'0 0.0
2017-Nov-10 11:53N 68°58' E 033°01'0 0.0
2017-Nov-10 11:30N 68°58' E 033°01'0 0.0
2017-Nov-10 10:59N 68°58' E 033°01'0 0.0
2017-Nov-10 10:22N 68°58' E 033°01'0 0.0
2017-Nov-10 09:53N 68°58' E 033°01'0 0.1
2017-Nov-10 09:29N 68°58' E 033°01'1 1.2
2017-Nov-10 09:00N 68°57' E 033°00'0 0.0
2017-Nov-10 08:28N 68°57' E 033°00'0 0.0
2017-Nov-10 07:59N 68°57' E 033°00'0 0.0
2017-Nov-10 07:28N 68°57' E 033°00'0 0.0
2017-Nov-10 07:00N 68°57' E 033°00'0 0.0
2017-Nov-10 06:28N 68°57' E 033°00'0 0.0
2017-Nov-10 05:59N 68°57' E 033°00'0 0.0
2017-Nov-10 05:29N 68°57' E 033°00'0 0.0
2017-Nov-10 05:00N 68°57' E 033°00'0 0.0
2017-Nov-10 04:28N 68°57' E 033°00'0 0.0
2017-Nov-10 03:59N 68°57' E 033°00'0 0.0
2017-Nov-10 03:28N 68°57' E 033°00'0 0.0
2017-Nov-10 02:58N 68°57' E 033°00'0 0.0
2017-Nov-10 02:28N 68°57' E 033°00'0 0.0
2017-Nov-10 01:59N 68°57' E 033°00'0 0.0
2017-Nov-10 01:29N 68°57' E 033°00'0 0.0
2017-Nov-09 22:40N 68°57' E 033°00'0 0.0
2017-Nov-09 22:28N 68°57' E 033°00'0 0.0
2017-Nov-09 21:54N 68°57' E 033°00'0 0.0
2017-Nov-09 21:22N 68°57' E 033°00'0 0.0
2017-Nov-09 20:50N 68°57' E 033°00'0 0.0
2017-Nov-09 20:04N 68°57' E 033°00'0 0.0
2017-Nov-09 19:58N 68°57' E 033°00'0 0.0
2017-Nov-09 18:43N 68°57' E 033°00'0 0.0
2017-Nov-09 18:15N 68°57' E 033°00'0 0.0
2017-Nov-09 17:53N 68°57' E 033°00'0 0.0
2017-Nov-09 17:17N 68°57' E 033°00'0 0.0
2017-Nov-09 16:33N 68°57' E 033°00'0 0.0
2017-Nov-09 13:54N 68°57' E 033°00'0 0.0
2017-Nov-09 13:25N 68°57' E 033°00'  
2017-Nov-06 22:26N 68°57' E 033°00'0 0.0
2017-Nov-05 23:38N 68°57' E 033°00'0 0.0
2017-Nov-05 23:17N 68°57' E 033°00'0 0.0
2017-Nov-05 21:47N 68°57' E 033°00'0 0.0
2017-Nov-05 18:10N 68°57' E 033°00'0 0.0
2017-Nov-05 17:41N 68°57' E 033°00'0 0.0
2017-Nov-05 15:08N 68°57' E 033°00'0 0.0
2017-Nov-05 08:17N 68°57' E 033°00'0 0.0
2017-Nov-05 04:22N 68°57' E 033°00'0 0.0
2017-Nov-04 23:40N 68°57' E 033°00'0 0.0
2017-Nov-04 23:19N 68°57' E 033°00'0 0.0
2017-Nov-04 22:48N 68°57' E 033°00'0 0.0
2017-Nov-04 22:27N 68°57' E 033°00'0 0.0
2017-Nov-04 16:28N 68°57' E 033°00'0 0.0
2017-Nov-04 16:00N 68°57' E 033°00'0 0.0
2017-Nov-04 11:41N 68°57' E 033°00'0 0.0
2017-Nov-04 08:39N 68°57' E 033°00'0 0.0
2017-Nov-04 06:03N 68°57' E 033°00'0 0.0
2017-Nov-04 05:51N 68°57' E 033°00'0 0.0
2017-Nov-03 23:06N 68°57' E 033°00'0 0.0
2017-Nov-03 19:02N 68°57' E 033°00'0 0.0
2017-Nov-03 08:41N 68°57' E 033°00'0 0.0
2017-Nov-03 06:29N 68°57' E 033°00'0 0.1
2017-Nov-03 04:13N 68°57' E 033°01'0 1.1
2017-Nov-03 03:51N 68°58' E 033°01'0 0.0
2017-Nov-03 03:07N 68°58' E 033°01'0 0.1
2017-Nov-03 02:40N 68°58' E 033°01'0 0.0
2017-Nov-03 02:19N 68°58' E 033°01'0 0.0
2017-Nov-03 01:27N 68°58' E 033°01'0 0.0
2017-Nov-02 21:29N 68°58' E 033°01'2 3.3
2017-Nov-02 20:57N 68°59' E 033°02'  
Track history (hours):
 
Tides and Currents Weather Stations Pressure Air Temp Water Temp Dewpoint Dewpoint Depression Visibility Wind Speed Wind Dir Waves Ship Positions

Saida

Last reported at 2017-Nov-10 15:23 UTC. Time now 2017-Nov-18 06:37 UTC.
Position N 69°03' E 033°04'.

Length 57 m; draft 5.9 m.

Type: Fishing. MMSI: 273521100.

Date/timePositionNaut miles runAvg speedWind from/ knotsBaromVisibWave heightAir tempDewpointWater temp
2017-Nov-10 15:23N 69°03' E 033°04'2 6.4
2017-Nov-10 15:00N 69°01' E 033°03'3 5.1
2017-Nov-10 14:30N 68°58' E 033°02'1 1.4
2017-Nov-10 14:00N 68°58' E 033°01'0 0.0
2017-Nov-10 13:30N 68°58' E 033°01'0 0.0
2017-Nov-10 13:00N 68°58' E 033°01'0 0.0
2017-Nov-10 12:29N 68°58' E 033°01'0 0.0
2017-Nov-10 11:53N 68°58' E 033°01'0 0.0
2017-Nov-10 11:30N 68°58' E 033°01'0 0.0
2017-Nov-10 10:59N 68°58' E 033°01'0 0.0
2017-Nov-10 10:22N 68°58' E 033°01'0 0.0
2017-Nov-10 09:53N 68°58' E 033°01'0 0.1
2017-Nov-10 09:29N 68°58' E 033°01'1 1.2
2017-Nov-10 09:00N 68°57' E 033°00'0 0.0
2017-Nov-10 08:28N 68°57' E 033°00'0 0.0
2017-Nov-10 07:59N 68°57' E 033°00'0 0.0
2017-Nov-10 07:28N 68°57' E 033°00'0 0.0
2017-Nov-10 07:00N 68°57' E 033°00'0 0.0
2017-Nov-10 06:28N 68°57' E 033°00'0 0.0
2017-Nov-10 05:59N 68°57' E 033°00'0 0.0
2017-Nov-10 05:29N 68°57' E 033°00'0 0.0
2017-Nov-10 05:00N 68°57' E 033°00'0 0.0
2017-Nov-10 04:28N 68°57' E 033°00'0 0.0
2017-Nov-10 03:59N 68°57' E 033°00'0 0.0
2017-Nov-10 03:28N 68°57' E 033°00'0 0.0
2017-Nov-10 02:58N 68°57' E 033°00'0 0.0
2017-Nov-10 02:28N 68°57' E 033°00'0 0.0
2017-Nov-10 01:59N 68°57' E 033°00'0 0.0
2017-Nov-10 01:29N 68°57' E 033°00'0 0.0
2017-Nov-09 22:40N 68°57' E 033°00'0 0.0
2017-Nov-09 22:28N 68°57' E 033°00'0 0.0
2017-Nov-09 21:54N 68°57' E 033°00'0 0.0
2017-Nov-09 21:22N 68°57' E 033°00'0 0.0
2017-Nov-09 20:50N 68°57' E 033°00'0 0.0
2017-Nov-09 20:04N 68°57' E 033°00'0 0.0
2017-Nov-09 19:58N 68°57' E 033°00'0 0.0
2017-Nov-09 18:43N 68°57' E 033°00'0 0.0
2017-Nov-09 18:15N 68°57' E 033°00'0 0.0
2017-Nov-09 17:53N 68°57' E 033°00'0 0.0
2017-Nov-09 17:17N 68°57' E 033°00'0 0.0
2017-Nov-09 16:33N 68°57' E 033°00'0 0.0
2017-Nov-09 13:54N 68°57' E 033°00'0 0.0
2017-Nov-09 13:25N 68°57' E 033°00'  
2017-Nov-06 22:26N 68°57' E 033°00'0 0.0
2017-Nov-05 23:38N 68°57' E 033°00'0 0.0
2017-Nov-05 23:17N 68°57' E 033°00'0 0.0
2017-Nov-05 21:47N 68°57' E 033°00'0 0.0
2017-Nov-05 18:10N 68°57' E 033°00'0 0.0
2017-Nov-05 17:41N 68°57' E 033°00'0 0.0
2017-Nov-05 15:08N 68°57' E 033°00'0 0.0
2017-Nov-05 08:17N 68°57' E 033°00'0 0.0
2017-Nov-05 04:22N 68°57' E 033°00'0 0.0
2017-Nov-04 23:40N 68°57' E 033°00'0 0.0
2017-Nov-04 23:19N 68°57' E 033°00'0 0.0
2017-Nov-04 22:48N 68°57' E 033°00'0 0.0
2017-Nov-04 22:27N 68°57' E 033°00'0 0.0
2017-Nov-04 16:28N 68°57' E 033°00'0 0.0
2017-Nov-04 16:00N 68°57' E 033°00'0 0.0
2017-Nov-04 11:41N 68°57' E 033°00'0 0.0
2017-Nov-04 08:39N 68°57' E 033°00'0 0.0
2017-Nov-04 06:03N 68°57' E 033°00'0 0.0
2017-Nov-04 05:51N 68°57' E 033°00'0 0.0
2017-Nov-03 23:06N 68°57' E 033°00'0 0.0
2017-Nov-03 19:02N 68°57' E 033°00'0 0.0
2017-Nov-03 08:41N 68°57' E 033°00'0 0.0
2017-Nov-03 06:29N 68°57' E 033°00'0 0.1
2017-Nov-03 04:13N 68°57' E 033°01'0 1.1
2017-Nov-03 03:51N 68°58' E 033°01'0 0.0
2017-Nov-03 03:07N 68°58' E 033°01'0 0.1
2017-Nov-03 02:40N 68°58' E 033°01'0 0.0
2017-Nov-03 02:19N 68°58' E 033°01'0 0.0
2017-Nov-03 01:27N 68°58' E 033°01'0 0.0
2017-Nov-02 21:29N 68°58' E 033°01'2 3.3
2017-Nov-02 20:57N 68°59' E 033°02'  

Dump ship's entire track history